sensor_id;sensor_type;location;lat;lon;timestamp;P1;durP1;ratioP1;P2;durP2;ratioP2
58240;SDS011;45058;55.772;38.224;2022-09-09T03:36:05;4.07;;;2.60;;
58240;SDS011;45058;55.772;38.224;2022-09-09T03:47:24;5.93;;;2.23;;
58240;SDS011;45058;55.772;38.224;2022-09-09T03:52:51;3.53;;;2.17;;
58240;SDS011;45058;55.772;38.224;2022-09-09T03:55:20;3.37;;;2.37;;
58240;SDS011;45058;55.772;38.224;2022-09-09T03:57:47;3.37;;;2.13;;
58240;SDS011;45058;55.772;38.224;2022-09-09T04:00:14;3.13;;;2.30;;
58240;SDS011;45058;55.772;38.224;2022-09-09T04:05:31;3.57;;;1.93;;
58240;SDS011;45058;55.772;38.224;2022-09-09T04:07:59;3.53;;;2.20;;
58240;SDS011;45058;55.772;38.224;2022-09-09T04:10:26;4.03;;;2.50;;
58240;SDS011;45058;55.772;38.224;2022-09-09T04:12:53;4.85;;;2.25;;
58240;SDS011;45058;55.772;38.224;2022-09-09T04:15:20;8.27;;;2.47;;
58240;SDS011;45058;55.772;38.224;2022-09-09T04:17:46;2.60;;;2.00;;
58240;SDS011;45058;55.772;38.224;2022-09-09T04:20:12;4.27;;;2.03;;
58240;SDS011;45058;55.772;38.224;2022-09-09T04:22:38;3.87;;;1.90;;
58240;SDS011;45058;55.772;38.224;2022-09-09T04:25:05;2.60;;;2.00;;
58240;SDS011;45058;55.772;38.224;2022-09-09T04:27:32;4.07;;;2.33;;
58240;SDS011;45058;55.772;38.224;2022-09-09T04:29:57;4.38;;;2.70;;
58240;SDS011;45058;55.772;38.224;2022-09-09T04:32:26;3.20;;;2.00;;
58240;SDS011;45058;55.772;38.224;2022-09-09T04:34:53;4.50;;;1.90;;
58240;SDS011;45058;55.772;38.224;2022-09-09T04:37:19;6.60;;;2.30;;
58240;SDS011;45058;55.772;38.224;2022-09-09T04:39:46;5.33;;;2.20;;
58240;SDS011;45058;55.772;38.224;2022-09-09T04:42:12;3.42;;;2.13;;
58240;SDS011;45058;55.772;38.224;2022-09-09T04:44:38;3.57;;;2.03;;
58240;SDS011;45058;55.772;38.224;2022-09-09T04:47:05;3.08;;;1.92;;
58240;SDS011;45058;55.772;38.224;2022-09-09T04:49:31;4.03;;;2.03;;
58240;SDS011;45058;55.772;38.224;2022-09-09T04:51:58;2.30;;;1.60;;
58240;SDS011;45058;55.772;38.224;2022-09-09T04:54:24;3.75;;;2.13;;
58240;SDS011;45058;55.772;38.224;2022-09-09T04:56:50;4.30;;;2.28;;
58240;SDS011;45058;55.772;38.224;2022-09-09T04:59:18;4.38;;;2.05;;
58240;SDS011;45058;55.772;38.224;2022-09-09T05:01:48;3.67;;;2.22;;
58240;SDS011;45058;55.772;38.224;2022-09-09T05:04:15;2.93;;;1.60;;
58240;SDS011;45058;55.772;38.224;2022-09-09T05:06:42;2.22;;;1.77;;
58240;SDS011;45058;55.772;38.224;2022-09-09T05:09:10;3.63;;;1.90;;
58240;SDS011;45058;55.772;38.224;2022-09-09T05:11:36;4.00;;;2.00;;
58240;SDS011;45058;55.772;38.224;2022-09-09T05:14:22;5.70;;;1.88;;
58240;SDS011;45058;55.772;38.224;2022-09-09T05:16:48;3.40;;;2.10;;
58240;SDS011;45058;55.772;38.224;2022-09-09T05:19:15;2.30;;;1.60;;
58240;SDS011;45058;55.772;38.224;2022-09-09T06:47:55;3.03;;;0.90;;
58240;SDS011;45058;55.772;38.224;2022-09-09T06:53:24;1.17;;;0.60;;
58240;SDS011;45058;55.772;38.224;2022-09-09T06:55:52;9.30;;;0.70;;
58240;SDS011;45058;55.772;38.224;2022-09-09T06:58:18;11.77;;;0.85;;
58240;SDS011;45058;55.772;38.224;2022-09-09T07:00:44;6.43;;;0.80;;
58240;SDS011;45058;55.772;38.224;2022-09-09T07:03:10;10.88;;;0.82;;
58240;SDS011;45058;55.772;38.224;2022-09-09T07:11:44;8.95;;;0.70;;
58240;SDS011;45058;55.772;38.224;2022-09-09T07:25:56;21.85;;;1.25;;
58240;SDS011;45058;55.772;38.224;2022-09-09T07:31:42;1.77;;;0.60;;
58240;SDS011;45058;55.772;38.224;2022-09-09T07:34:17;49.85;;;2.67;;
58240;SDS011;45058;55.772;38.224;2022-09-09T07:37:08;1.27;;;0.50;;
58240;SDS011;45058;55.772;38.224;2022-09-09T07:42:23;1.75;;;0.77;;
58240;SDS011;45058;55.772;38.224;2022-09-09T07:44:50;1.23;;;0.50;;
58240;SDS011;45058;55.772;38.224;2022-09-09T07:53:25;0.88;;;0.60;;
58240;SDS011;45058;55.772;38.224;2022-09-09T07:55:52;2.50;;;0.50;;
58240;SDS011;45058;55.772;38.224;2022-09-09T07:58:19;1.98;;;0.50;;
58240;SDS011;45058;55.772;38.224;2022-09-09T08:00:45;1.85;;;0.60;;
58240;SDS011;45058;55.772;38.224;2022-09-09T08:03:11;0.70;;;0.40;;
58240;SDS011;45058;55.772;38.224;2022-09-09T08:05:37;0.82;;;0.40;;
58240;SDS011;45058;55.772;38.224;2022-09-09T08:08:05;1.13;;;0.40;;
58240;SDS011;45058;55.772;38.224;2022-09-09T08:13:26;7.13;;;0.77;;
58240;SDS011;45058;55.772;38.224;2022-09-09T08:48:20;1.20;;;0.55;;
58240;SDS011;45058;55.772;38.224;2022-09-09T08:51:11;10.40;;;0.60;;
58240;SDS011;45058;55.772;38.224;2022-09-09T08:53:42;0.98;;;0.40;;
58240;SDS011;45058;55.772;38.224;2022-09-09T08:56:14;0.63;;;0.50;;
58240;SDS011;45058;55.772;38.224;2022-09-09T08:58:48;4.00;;;0.60;;
58240;SDS011;45058;55.772;38.224;2022-09-09T09:01:23;3.50;;;0.77;;
58240;SDS011;45058;55.772;38.224;2022-09-09T09:09:21;1.52;;;0.60;;
58240;SDS011;45058;55.772;38.224;2022-09-09T09:12:19;2.55;;;0.60;;
58240;SDS011;45058;55.772;38.224;2022-09-09T09:17:19;1.55;;;0.77;;
58240;SDS011;45058;55.772;38.224;2022-09-09T09:19:47;1.05;;;0.50;;
58240;SDS011;45058;55.772;38.224;2022-09-09T09:24:55;5.50;;;0.45;;
58240;SDS011;45058;55.772;38.224;2022-09-09T09:27:32;1.00;;;0.40;;
58240;SDS011;45058;55.772;38.224;2022-09-09T09:30:17;2.25;;;0.50;;
58240;SDS011;45058;55.772;38.224;2022-09-09T09:35:40;1.48;;;0.30;;
58240;SDS011;45058;55.772;38.224;2022-09-09T09:38:16;0.88;;;0.40;;
58240;SDS011;45058;55.772;38.224;2022-09-09T09:40:53;6.07;;;0.52;;
58240;SDS011;45058;55.772;38.224;2022-09-09T09:43:26;2.55;;;0.50;;
58240;SDS011;45058;55.772;38.224;2022-09-09T09:45:58;2.40;;;0.70;;
58240;SDS011;45058;55.772;38.224;2022-09-09T09:48:26;4.18;;;0.93;;
58240;SDS011;45058;55.772;38.224;2022-09-09T09:50:54;1.48;;;0.77;;
58240;SDS011;45058;55.772;38.224;2022-09-09T09:53:42;1.08;;;0.60;;
58240;SDS011;45058;55.772;38.224;2022-09-09T09:56:11;1.63;;;0.47;;
58240;SDS011;45058;55.772;38.224;2022-09-09T10:01:24;1.23;;;0.57;;
58240;SDS011;45058;55.772;38.224;2022-09-09T10:04:16;1.85;;;0.43;;
58240;SDS011;45058;55.772;38.224;2022-09-09T10:06:46;1.77;;;0.40;;
58240;SDS011;45058;55.772;38.224;2022-09-09T10:12:16;1.55;;;0.30;;
58240;SDS011;45058;55.772;38.224;2022-09-09T10:15:30;1.25;;;0.30;;
58240;SDS011;45058;55.772;38.224;2022-09-09T10:20:31;3.55;;;0.70;;
58240;SDS011;45058;55.772;38.224;2022-09-09T10:34:34;1.75;;;0.35;;
58240;SDS011;45058;55.772;38.224;2022-09-09T10:37:17;0.93;;;0.55;;
58240;SDS011;45058;55.772;38.224;2022-09-09T10:40:46;2.10;;;0.60;;
58240;SDS011;45058;55.772;38.224;2022-09-09T10:45:49;3.35;;;0.50;;
58240;SDS011;45058;55.772;38.224;2022-09-09T10:51:23;2.00;;;0.73;;
58240;SDS011;45058;55.772;38.224;2022-09-09T10:56:34;4.85;;;1.13;;
58240;SDS011;45058;55.772;38.224;2022-09-09T11:01:38;0.60;;;0.40;;
58240;SDS011;45058;55.772;38.224;2022-09-09T11:04:15;0.98;;;0.50;;
58240;SDS011;45058;55.772;38.224;2022-09-09T11:06:47;1.17;;;0.60;;
58240;SDS011;45058;55.772;38.224;2022-09-09T11:09:18;1.88;;;0.57;;
58240;SDS011;45058;55.772;38.224;2022-09-09T11:11:52;2.67;;;0.80;;
58240;SDS011;45058;55.772;38.224;2022-09-09T11:17:02;2.55;;;0.80;;
58240;SDS011;45058;55.772;38.224;2022-09-09T11:19:40;5.88;;;0.80;;
58240;SDS011;45058;55.772;38.224;2022-09-09T11:30:31;1.55;;;0.60;;
58240;SDS011;45058;55.772;38.224;2022-09-09T11:35:58;2.42;;;0.90;;
58240;SDS011;45058;55.772;38.224;2022-09-09T11:38:41;2.03;;;1.00;;
58240;SDS011;45058;55.772;38.224;2022-09-09T11:41:12;2.22;;;0.88;;
58240;SDS011;45058;55.772;38.224;2022-09-09T11:43:43;1.48;;;0.85;;
58240;SDS011;45058;55.772;38.224;2022-09-09T11:46:11;1.83;;;1.08;;
58240;SDS011;45058;55.772;38.224;2022-09-09T11:48:40;2.22;;;0.70;;
58240;SDS011;45058;55.772;38.224;2022-09-09T11:53:48;11.18;;;1.25;;
58240;SDS011;45058;55.772;38.224;2022-09-09T11:56:28;3.30;;;0.63;;
58240;SDS011;45058;55.772;38.224;2022-09-09T11:59:02;1.55;;;0.60;;
58240;SDS011;45058;55.772;38.224;2022-09-09T12:01:46;3.55;;;0.80;;
58240;SDS011;45058;55.772;38.224;2022-09-09T12:04:17;1.60;;;0.80;;
58240;SDS011;45058;55.772;38.224;2022-09-09T12:09:22;0.93;;;0.50;;
58240;SDS011;45058;55.772;38.224;2022-09-09T12:11:51;7.45;;;0.82;;
58240;SDS011;45058;55.772;38.224;2022-09-09T12:14:22;2.78;;;0.70;;
58240;SDS011;45058;55.772;38.224;2022-09-09T12:19:40;0.98;;;0.43;;
58240;SDS011;45058;55.772;38.224;2022-09-09T12:22:14;2.50;;;0.50;;
58240;SDS011;45058;55.772;38.224;2022-09-09T12:27:50;2.25;;;0.50;;
58240;SDS011;45058;55.772;38.224;2022-09-09T12:30:49;0.60;;;0.40;;
58240;SDS011;45058;55.772;38.224;2022-09-09T12:33:22;0.95;;;0.40;;
58240;SDS011;45058;55.772;38.224;2022-09-09T12:35:56;1.13;;;0.40;;
58240;SDS011;45058;55.772;38.224;2022-09-09T12:38:35;2.35;;;0.50;;
58240;SDS011;45058;55.772;38.224;2022-09-09T12:41:03;2.85;;;0.70;;
58240;SDS011;45058;55.772;38.224;2022-09-09T12:43:30;2.55;;;1.00;;
58240;SDS011;45058;55.772;38.224;2022-09-09T12:46:00;3.20;;;1.65;;
58240;SDS011;45058;55.772;38.224;2022-09-09T12:48:34;2.67;;;0.80;;
58240;SDS011;45058;55.772;38.224;2022-09-09T12:51:02;4.40;;;0.98;;
58240;SDS011;45058;55.772;38.224;2022-09-09T12:53:40;4.45;;;0.93;;
58240;SDS011;45058;55.772;38.224;2022-09-09T12:56:06;1.70;;;1.15;;
58240;SDS011;45058;55.772;38.224;2022-09-09T12:58:35;1.88;;;1.10;;
58240;SDS011;45058;55.772;38.224;2022-09-09T13:01:03;2.45;;;1.00;;
58240;SDS011;45058;55.772;38.224;2022-09-09T13:03:30;4.80;;;0.93;;
58240;SDS011;45058;55.772;38.224;2022-09-09T13:05:58;5.82;;;1.20;;
58240;SDS011;45058;55.772;38.224;2022-09-09T13:08:35;2.65;;;1.00;;
58240;SDS011;45058;55.772;38.224;2022-09-09T13:11:03;3.03;;;0.90;;
58240;SDS011;45058;55.772;38.224;2022-09-09T13:16:04;3.20;;;0.98;;
58240;SDS011;45058;55.772;38.224;2022-09-09T13:18:36;1.75;;;1.05;;
58240;SDS011;45058;55.772;38.224;2022-09-09T13:21:05;1.92;;;0.63;;
58240;SDS011;45058;55.772;38.224;2022-09-09T13:23:32;3.17;;;0.70;;
58240;SDS011;45058;55.772;38.224;2022-09-09T13:26:01;6.35;;;2.25;;
58240;SDS011;45058;55.772;38.224;2022-09-09T13:28:30;4.03;;;1.23;;
58240;SDS011;45058;55.772;38.224;2022-09-09T13:31:00;1.88;;;0.70;;
58240;SDS011;45058;55.772;38.224;2022-09-09T13:33:31;1.33;;;0.80;;
58240;SDS011;45058;55.772;38.224;2022-09-09T13:36:05;2.25;;;0.68;;
58240;SDS011;45058;55.772;38.224;2022-09-09T13:38:35;0.98;;;0.57;;
58240;SDS011;45058;55.772;38.224;2022-09-09T13:41:07;1.50;;;0.70;;
58240;SDS011;45058;55.772;38.224;2022-09-09T13:43:38;3.40;;;0.80;;
58240;SDS011;45058;55.772;38.224;2022-09-09T13:48:58;0.98;;;0.60;;
58240;SDS011;45058;55.772;38.224;2022-09-09T13:51:41;1.55;;;0.82;;
58240;SDS011;45058;55.772;38.224;2022-09-09T13:54:09;7.63;;;0.70;;
58240;SDS011;45058;55.772;38.224;2022-09-09T13:56:36;3.05;;;0.57;;
58240;SDS011;45058;55.772;38.224;2022-09-09T13:59:05;1.00;;;0.63;;
58240;SDS011;45058;55.772;38.224;2022-09-09T14:01:33;1.58;;;0.50;;
58240;SDS011;45058;55.772;38.224;2022-09-09T14:04:00;1.73;;;0.80;;
58240;SDS011;45058;55.772;38.224;2022-09-09T14:06:26;5.45;;;1.50;;
58240;SDS011;45058;55.772;38.224;2022-09-09T14:08:53;4.70;;;1.73;;
58240;SDS011;45058;55.772;38.224;2022-09-09T14:11:20;3.80;;;1.70;;
58240;SDS011;45058;55.772;38.224;2022-09-09T14:13:50;1.92;;;1.00;;
58240;SDS011;45058;55.772;38.224;2022-09-09T14:16:17;3.40;;;1.25;;
58240;SDS011;45058;55.772;38.224;2022-09-09T14:18:44;5.20;;;1.85;;
58240;SDS011;45058;55.772;38.224;2022-09-09T14:21:11;6.60;;;2.22;;
58240;SDS011;45058;55.772;38.224;2022-09-09T14:23:38;7.00;;;2.70;;
58240;SDS011;45058;55.772;38.224;2022-09-09T14:26:04;5.57;;;2.80;;
58240;SDS011;45058;55.772;38.224;2022-09-09T14:28:31;5.43;;;2.92;;
58240;SDS011;45058;55.772;38.224;2022-09-09T14:30:59;5.63;;;2.03;;
58240;SDS011;45058;55.772;38.224;2022-09-09T14:33:26;3.63;;;1.55;;
58240;SDS011;45058;55.772;38.224;2022-09-09T14:35:55;5.15;;;2.20;;
58240;SDS011;45058;55.772;38.224;2022-09-09T14:38:28;8.77;;;3.15;;
58240;SDS011;45058;55.772;38.224;2022-09-09T14:43:48;6.47;;;3.15;;
58240;SDS011;45058;55.772;38.224;2022-09-09T14:46:16;4.53;;;2.17;;
58240;SDS011;45058;55.772;38.224;2022-09-09T14:48:43;4.30;;;1.80;;
58240;SDS011;45058;55.772;38.224;2022-09-09T14:51:14;4.53;;;2.00;;
58240;SDS011;45058;55.772;38.224;2022-09-09T14:53:42;5.72;;;1.40;;
58240;SDS011;45058;55.772;38.224;2022-09-09T14:56:10;3.08;;;1.42;;
58240;SDS011;45058;55.772;38.224;2022-09-09T14:58:38;3.95;;;1.38;;
58240;SDS011;45058;55.772;38.224;2022-09-09T15:01:08;3.55;;;1.48;;
58240;SDS011;45058;55.772;38.224;2022-09-09T15:03:36;3.25;;;1.25;;
58240;SDS011;45058;55.772;38.224;2022-09-09T15:06:06;3.05;;;1.30;;
58240;SDS011;45058;55.772;38.224;2022-09-09T15:08:37;7.03;;;1.25;;
58240;SDS011;45058;55.772;38.224;2022-09-09T15:11:05;4.82;;;1.80;;
58240;SDS011;45058;55.772;38.224;2022-09-09T15:13:36;5.70;;;1.08;;
58240;SDS011;45058;55.772;38.224;2022-09-09T15:16:15;6.15;;;1.52;;
58240;SDS011;45058;55.772;38.224;2022-09-09T15:18:43;3.45;;;1.42;;
58240;SDS011;45058;55.772;38.224;2022-09-09T15:21:15;2.97;;;1.40;;
58240;SDS011;45058;55.772;38.224;2022-09-09T15:23:48;4.40;;;1.10;;
58240;SDS011;45058;55.772;38.224;2022-09-09T15:26:34;2.05;;;1.10;;
58240;SDS011;45058;55.772;38.224;2022-09-09T15:29:07;2.72;;;1.27;;
58240;SDS011;45058;55.772;38.224;2022-09-09T15:31:37;4.70;;;1.38;;
58240;SDS011;45058;55.772;38.224;2022-09-09T15:34:09;5.07;;;1.50;;
58240;SDS011;45058;55.772;38.224;2022-09-09T15:36:38;3.20;;;1.65;;
58240;SDS011;45058;55.772;38.224;2022-09-09T15:39:06;9.85;;;1.92;;
58240;SDS011;45058;55.772;38.224;2022-09-09T15:41:38;3.72;;;2.10;;
58240;SDS011;45058;55.772;38.224;2022-09-09T15:44:04;4.60;;;2.03;;
58240;SDS011;45058;55.772;38.224;2022-09-09T15:46:34;9.27;;;1.67;;
58240;SDS011;45058;55.772;38.224;2022-09-09T15:49:09;8.73;;;1.67;;
58240;SDS011;45058;55.772;38.224;2022-09-09T15:51:36;2.72;;;1.58;;
58240;SDS011;45058;55.772;38.224;2022-09-09T15:54:04;5.10;;;2.00;;
58240;SDS011;45058;55.772;38.224;2022-09-09T15:56:30;8.48;;;2.30;;
58240;SDS011;45058;55.772;38.224;2022-09-09T15:58:58;4.97;;;2.15;;
58240;SDS011;45058;55.772;38.224;2022-09-09T16:01:25;3.58;;;1.58;;
58240;SDS011;45058;55.772;38.224;2022-09-09T16:03:52;5.50;;;2.22;;
58240;SDS011;45058;55.772;38.224;2022-09-09T16:06:20;3.25;;;1.70;;
58240;SDS011;45058;55.772;38.224;2022-09-09T16:08:48;3.95;;;2.30;;
58240;SDS011;45058;55.772;38.224;2022-09-09T16:11:17;5.95;;;2.45;;
58240;SDS011;45058;55.772;38.224;2022-09-09T16:13:46;5.65;;;2.67;;
58240;SDS011;45058;55.772;38.224;2022-09-09T16:16:14;8.88;;;3.40;;
58240;SDS011;45058;55.772;38.224;2022-09-09T16:18:46;5.97;;;2.80;;
58240;SDS011;45058;55.772;38.224;2022-09-09T16:21:15;6.25;;;2.95;;
58240;SDS011;45058;55.772;38.224;2022-09-09T16:23:45;9.15;;;2.80;;
58240;SDS011;45058;55.772;38.224;2022-09-09T16:26:12;7.15;;;2.53;;
58240;SDS011;45058;55.772;38.224;2022-09-09T16:28:39;7.85;;;2.35;;
58240;SDS011;45058;55.772;38.224;2022-09-09T16:31:06;8.32;;;3.60;;
58240;SDS011;45058;55.772;38.224;2022-09-09T16:33:33;9.32;;;3.03;;
58240;SDS011;45058;55.772;38.224;2022-09-09T16:36:04;8.43;;;3.30;;
58240;SDS011;45058;55.772;38.224;2022-09-09T16:38:32;9.98;;;4.00;;
58240;SDS011;45058;55.772;38.224;2022-09-09T16:40:59;13.25;;;3.70;;
58240;SDS011;45058;55.772;38.224;2022-09-09T16:43:25;12.27;;;4.30;;
58240;SDS011;45058;55.772;38.224;2022-09-09T16:45:51;9.95;;;5.18;;
58240;SDS011;45058;55.772;38.224;2022-09-09T16:48:18;12.32;;;5.30;;
58240;SDS011;45058;55.772;38.224;2022-09-09T16:50:44;9.40;;;4.47;;
58240;SDS011;45058;55.772;38.224;2022-09-09T16:53:11;9.60;;;5.35;;
58240;SDS011;45058;55.772;38.224;2022-09-09T16:55:41;12.48;;;5.82;;
58240;SDS011;45058;55.772;38.224;2022-09-09T16:58:10;11.88;;;5.93;;
58240;SDS011;45058;55.772;38.224;2022-09-09T17:00:36;13.32;;;6.40;;
58240;SDS011;45058;55.772;38.224;2022-09-09T17:03:02;17.52;;;6.72;;
58240;SDS011;45058;55.772;38.224;2022-09-09T17:05:31;23.00;;;6.75;;
58240;SDS011;45058;55.772;38.224;2022-09-09T17:07:58;16.48;;;6.90;;
58240;SDS011;45058;55.772;38.224;2022-09-09T17:10:24;14.45;;;6.75;;
58240;SDS011;45058;55.772;38.224;2022-09-09T17:12:51;18.10;;;7.45;;
58240;SDS011;45058;55.772;38.224;2022-09-09T17:15:17;21.50;;;6.75;;
58240;SDS011;45058;55.772;38.224;2022-09-09T17:17:44;15.25;;;7.50;;
58240;SDS011;45058;55.772;38.224;2022-09-09T17:20:14;20.13;;;7.40;;
58240;SDS011;45058;55.772;38.224;2022-09-09T17:22:42;13.35;;;7.75;;
58240;SDS011;45058;55.772;38.224;2022-09-09T17:25:08;21.77;;;7.43;;
58240;SDS011;45058;55.772;38.224;2022-09-09T17:27:34;20.20;;;7.35;;
58240;SDS011;45058;55.772;38.224;2022-09-09T17:30:00;29.60;;;7.90;;
58240;SDS011;45058;55.772;38.224;2022-09-09T17:32:28;26.40;;;7.13;;
58240;SDS011;45058;55.772;38.224;2022-09-09T17:34:55;26.83;;;7.90;;
58240;SDS011;45058;55.772;38.224;2022-09-09T17:37:21;20.48;;;8.13;;
58240;SDS011;45058;55.772;38.224;2022-09-09T17:39:47;29.75;;;9.23;;
58240;SDS011;45058;55.772;38.224;2022-09-09T17:42:13;33.67;;;8.27;;
58240;SDS011;45058;55.772;38.224;2022-09-09T17:44:40;33.42;;;8.32;;
58240;SDS011;45058;55.772;38.224;2022-09-09T17:47:07;25.90;;;7.82;;
58240;SDS011;45058;55.772;38.224;2022-09-09T17:49:33;28.00;;;8.25;;
58240;SDS011;45058;55.772;38.224;2022-09-09T17:51:59;22.10;;;8.10;;
58240;SDS011;45058;55.772;38.224;2022-09-09T17:54:25;24.50;;;8.10;;
58240;SDS011;45058;55.772;38.224;2022-09-09T17:56:51;16.05;;;8.75;;
58240;SDS011;45058;55.772;38.224;2022-09-09T17:59:18;23.40;;;8.20;;
58240;SDS011;45058;55.772;38.224;2022-09-09T18:01:45;24.60;;;9.00;;
58240;SDS011;45058;55.772;38.224;2022-09-09T18:04:13;23.17;;;8.00;;
58240;SDS011;45058;55.772;38.224;2022-09-09T18:06:44;27.42;;;9.40;;
58240;SDS011;45058;55.772;38.224;2022-09-09T18:09:12;40.20;;;10.30;;
58240;SDS011;45058;55.772;38.224;2022-09-09T18:11:44;33.20;;;9.55;;
58240;SDS011;45058;55.772;38.224;2022-09-09T18:14:16;36.25;;;9.40;;
58240;SDS011;45058;55.772;38.224;2022-09-09T18:16:44;37.28;;;11.07;;
58240;SDS011;45058;55.772;38.224;2022-09-09T18:19:12;25.67;;;10.13;;
58240;SDS011;45058;55.772;38.224;2022-09-09T18:21:41;30.30;;;11.68;;
58240;SDS011;45058;55.772;38.224;2022-09-09T18:24:09;53.50;;;18.85;;
58240;SDS011;45058;55.772;38.224;2022-09-09T18:26:37;53.92;;;20.70;;
58240;SDS011;45058;55.772;38.224;2022-09-09T18:29:06;52.83;;;19.90;;
58240;SDS011;45058;55.772;38.224;2022-09-09T18:31:36;60.35;;;22.95;;
58240;SDS011;45058;55.772;38.224;2022-09-09T18:34:05;59.45;;;24.73;;
58240;SDS011;45058;55.772;38.224;2022-09-09T18:36:53;56.70;;;22.98;;
58240;SDS011;45058;55.772;38.224;2022-09-09T18:39:21;42.33;;;13.43;;
58240;SDS011;45058;55.772;38.224;2022-09-09T18:41:50;31.80;;;11.77;;
58240;SDS011;45058;55.772;38.224;2022-09-09T18:44:19;37.90;;;11.93;;
58240;SDS011;45058;55.772;38.224;2022-09-09T18:46:47;30.43;;;10.00;;
58240;SDS011;45058;55.772;38.224;2022-09-09T18:49:14;22.43;;;8.70;;
58240;SDS011;45058;55.772;38.224;2022-09-09T18:51:41;24.55;;;8.70;;
58240;SDS011;45058;55.772;38.224;2022-09-09T18:54:10;21.47;;;8.73;;
58240;SDS011;45058;55.772;38.224;2022-09-09T18:56:39;23.33;;;7.70;;
58240;SDS011;45058;55.772;38.224;2022-09-09T18:59:07;23.02;;;7.57;;
58240;SDS011;45058;55.772;38.224;2022-09-09T19:01:35;23.43;;;8.13;;
58240;SDS011;45058;55.772;38.224;2022-09-09T19:04:03;23.20;;;9.70;;
58240;SDS011;45058;55.772;38.224;2022-09-09T19:06:31;26.13;;;10.03;;
58240;SDS011;45058;55.772;38.224;2022-09-09T19:08:58;29.23;;;10.23;;
58240;SDS011;45058;55.772;38.224;2022-09-09T19:11:25;28.03;;;11.00;;
58240;SDS011;45058;55.772;38.224;2022-09-09T19:13:56;26.77;;;11.70;;
58240;SDS011;45058;55.772;38.224;2022-09-09T19:16:25;34.23;;;10.23;;
58240;SDS011;45058;55.772;38.224;2022-09-09T19:18:54;25.73;;;10.40;;
58240;SDS011;45058;55.772;38.224;2022-09-09T19:21:24;33.40;;;9.93;;
58240;SDS011;45058;55.772;38.224;2022-09-09T19:24:00;22.83;;;9.53;;
58240;SDS011;45058;55.772;38.224;2022-09-09T19:26:32;27.63;;;9.63;;
58240;SDS011;45058;55.772;38.224;2022-09-09T19:29:01;24.95;;;10.43;;
58240;SDS011;45058;55.772;38.224;2022-09-09T19:31:27;26.27;;;9.80;;
58240;SDS011;45058;55.772;38.224;2022-09-09T19:33:54;20.40;;;9.87;;
58240;SDS011;45058;55.772;38.224;2022-09-09T19:36:21;17.20;;;9.10;;
58240;SDS011;45058;55.772;38.224;2022-09-09T19:38:48;21.13;;;9.93;;
58240;SDS011;45058;55.772;38.224;2022-09-09T19:41:15;19.83;;;9.40;;
58240;SDS011;45058;55.772;38.224;2022-09-09T19:43:47;21.67;;;10.10;;
58240;SDS011;45058;55.772;38.224;2022-09-09T19:46:15;18.67;;;8.27;;
58240;SDS011;45058;55.772;38.224;2022-09-09T19:48:43;16.37;;;8.07;;
58240;SDS011;45058;55.772;38.224;2022-09-09T19:53:38;19.97;;;9.00;;
58240;SDS011;45058;55.772;38.224;2022-09-09T19:56:06;20.27;;;9.13;;
58240;SDS011;45058;55.772;38.224;2022-09-09T19:58:36;22.40;;;8.57;;
58240;SDS011;45058;55.772;38.224;2022-09-09T20:01:05;31.37;;;9.80;;
58240;SDS011;45058;55.772;38.224;2022-09-09T20:03:33;22.77;;;9.30;;
58240;SDS011;45058;55.772;38.224;2022-09-09T20:06:00;23.73;;;9.10;;
58240;SDS011;45058;55.772;38.224;2022-09-09T20:08:25;26.27;;;8.83;;
58240;SDS011;45058;55.772;38.224;2022-09-09T20:10:52;26.53;;;9.07;;
58240;SDS011;45058;55.772;38.224;2022-09-09T20:13:19;27.67;;;10.20;;
58240;SDS011;45058;55.772;38.224;2022-09-09T20:15:46;30.90;;;10.43;;
58240;SDS011;45058;55.772;38.224;2022-09-09T20:20:46;37.60;;;10.75;;
58240;SDS011;45058;55.772;38.224;2022-09-09T20:23:13;41.07;;;11.93;;
58240;SDS011;45058;55.772;38.224;2022-09-09T20:25:40;28.67;;;12.33;;
58240;SDS011;45058;55.772;38.224;2022-09-09T20:28:08;38.13;;;11.73;;
58240;SDS011;45058;55.772;38.224;2022-09-09T20:30:34;40.07;;;11.60;;
58240;SDS011;45058;55.772;38.224;2022-09-09T20:33:03;29.67;;;9.10;;
58240;SDS011;45058;55.772;38.224;2022-09-09T20:35:29;38.73;;;10.13;;
58240;SDS011;45058;55.772;38.224;2022-09-09T20:37:55;36.17;;;11.50;;
58240;SDS011;45058;55.772;38.224;2022-09-09T20:40:22;33.93;;;10.67;;
58240;SDS011;45058;55.772;38.224;2022-09-09T20:42:49;34.53;;;11.00;;
58240;SDS011;45058;55.772;38.224;2022-09-09T20:45:15;29.93;;;10.00;;
58240;SDS011;45058;55.772;38.224;2022-09-09T20:47:42;36.80;;;11.43;;
58240;SDS011;45058;55.772;38.224;2022-09-09T20:50:08;35.23;;;11.27;;
58240;SDS011;45058;55.772;38.224;2022-09-09T20:52:35;30.67;;;10.53;;
58240;SDS011;45058;55.772;38.224;2022-09-09T20:55:01;37.97;;;12.37;;
58240;SDS011;45058;55.772;38.224;2022-09-09T20:57:29;42.10;;;11.20;;
58240;SDS011;45058;55.772;38.224;2022-09-09T20:59:55;33.60;;;11.17;;
58240;SDS011;45058;55.772;38.224;2022-09-09T21:02:21;33.70;;;12.40;;
58240;SDS011;45058;55.772;38.224;2022-09-09T21:04:47;23.83;;;10.57;;
58240;SDS011;45058;55.772;38.224;2022-09-09T21:07:13;34.30;;;11.30;;
58240;SDS011;45058;55.772;38.224;2022-09-09T21:09:40;30.67;;;11.33;;
58240;SDS011;45058;55.772;38.224;2022-09-09T21:12:06;30.77;;;11.13;;
58240;SDS011;45058;55.772;38.224;2022-09-09T21:14:33;38.60;;;12.73;;
58240;SDS011;45058;55.772;38.224;2022-09-09T21:16:59;34.03;;;12.27;;
58240;SDS011;45058;55.772;38.224;2022-09-09T21:19:25;26.00;;;13.00;;
58240;SDS011;45058;55.772;38.224;2022-09-09T21:21:51;35.27;;;13.27;;
58240;SDS011;45058;55.772;38.224;2022-09-09T21:24:17;31.40;;;13.07;;
58240;SDS011;45058;55.772;38.224;2022-09-09T21:26:43;31.30;;;13.17;;
58240;SDS011;45058;55.772;38.224;2022-09-09T21:29:09;26.50;;;12.13;;
58240;SDS011;45058;55.772;38.224;2022-09-09T21:31:35;32.97;;;13.07;;
58240;SDS011;45058;55.772;38.224;2022-09-09T21:34:02;27.27;;;12.70;;
58240;SDS011;45058;55.772;38.224;2022-09-09T21:36:28;31.97;;;11.97;;
58240;SDS011;45058;55.772;38.224;2022-09-09T21:38:55;31.80;;;12.63;;
58240;SDS011;45058;55.772;38.224;2022-09-09T21:41:23;34.97;;;13.33;;
58240;SDS011;45058;55.772;38.224;2022-09-09T21:43:53;26.87;;;12.40;;
58240;SDS011;45058;55.772;38.224;2022-09-09T21:46:19;28.23;;;12.33;;
58240;SDS011;45058;55.772;38.224;2022-09-09T21:48:45;27.37;;;12.40;;
58240;SDS011;45058;55.772;38.224;2022-09-09T21:51:12;28.40;;;13.00;;
58240;SDS011;45058;55.772;38.224;2022-09-09T21:53:40;23.87;;;12.20;;
58240;SDS011;45058;55.772;38.224;2022-09-09T21:56:08;32.87;;;12.67;;
58240;SDS011;45058;55.772;38.224;2022-09-09T21:58:36;27.67;;;13.13;;
58240;SDS011;45058;55.772;38.224;2022-09-09T22:01:09;26.00;;;12.60;;
58240;SDS011;45058;55.772;38.224;2022-09-09T22:03:37;38.07;;;14.33;;
58240;SDS011;45058;55.772;38.224;2022-09-09T22:06:04;33.23;;;12.47;;
58240;SDS011;45058;55.772;38.224;2022-09-09T22:08:31;32.10;;;13.37;;
58240;SDS011;45058;55.772;38.224;2022-09-09T22:11:03;29.00;;;13.73;;
58240;SDS011;45058;55.772;38.224;2022-09-09T22:13:33;31.00;;;13.82;;
58240;SDS011;45058;55.772;38.224;2022-09-09T22:16:01;39.23;;;13.67;;
58240;SDS011;45058;55.772;38.224;2022-09-09T22:18:28;26.27;;;13.60;;
58240;SDS011;45058;55.772;38.224;2022-09-09T22:20:56;36.37;;;14.07;;
58240;SDS011;45058;55.772;38.224;2022-09-09T22:23:23;32.00;;;13.30;;
58240;SDS011;45058;55.772;38.224;2022-09-09T22:25:50;26.73;;;13.13;;